Terminal Aerodrome Forecast
Issued by NWS

Home | Current Version | Previous Version | Text Only | Print | Product List | Glossary On
Versions: 1 2 3 4 5 6 7 8 9 10 11 12 13 14 15 16 17 18 19 20 21 22 23 24 25 26 27 28
000
FTUS43 KDLH 211700
TAFBRD
TAF
KBRD 211720Z 2118/2218 35010KT P6SM FEW022 SCT035
     FM220200 31002KT P6SM FEW030
      TEMPO 2209/2213 1SM BR SCT003
     FM221600 25009KT P6SM FEW026=

USA.gov is the U.S. government's official web portal to all federal, state and local government web resources and services.